Latest Weather Observations for Yarrawonga

IDN60801

Issued at 12:03 pm EST Monday 25 July 2016 (issued every 30 minutes, with the page automatically refreshed every 10 minutes)

About weather observations | Map of weather stations | Latest weather observations for NSW | Other Formats
Station Details ID: 081124 Name: YARRAWONGA Lat: -36.03 Lon: 146.03 Height: 128.9 m
Data from the previous 72 hours. | See also: Recent months at Yarrawonga
Date/Time
EST
Temp
°C
App
Temp
°C
Dew
Point
°C
Rel
Hum
%
Delta-T
°C
Wind Press
QNH
hPa
Press
MSL
hPa
Rain since
9am
mm
Dir  Spd
km/h
Gust
km/h
Spd
kts
Gust
kts
25/12:00pm 10.2 7.1 8.8 91 0.7 WNW 15 20 8 11 1012.9 1013.2 0.0
25/11:30am 9.4 6.2 8.5 94 0.4 WNW 15 20 8 11 1013.3 1013.6 0.0
25/11:00am 9.3 6.4 8.2 93 0.5 NW 13 20 7 11 1013.5 1013.8 0.0
25/10:30am 8.9 6.2 8.8 99 0.0 NNW 13 17 7 9 1013.2 1013.5 0.0
25/10:00am 8.3 5.4 8.2 99 0.0 NNW 13 15 7 8 1013.1 1013.4 0.0
25/09:30am 7.8 5.6 7.7 99 0.0 N 9 11 5 6 1012.9 1013.2 0.0
25/09:00am 7.5 5.1 7.2 98 0.1 N 9 11 5 6 1012.9 1013.2 4.6
25/08:30am 7.3 5.2 6.7 96 0.3 NNW 7 9 4 5 1012.8 1013.1 4.4
25/08:00am 7.2 5.0 6.3 94 0.4 NW 7 13 4 7 1012.4 1012.7 4.4
25/07:30am 6.9 4.7 6.0 94 0.4 WNW 7 11 4 6 1012.2 1012.5 4.4
25/07:00am 6.8 3.8 5.9 94 0.4 WNW 11 15 6 8 1011.7 1011.9 4.4
25/06:30am 6.7 3.7 5.8 94 0.4 W 11 19 6 10 1011.2 1011.4 4.4
25/06:00am 7.0 3.7 6.3 95 0.3 W 13 20 7 11 1010.7 1010.9 4.4
25/05:30am 7.1 3.5 6.7 97 0.2 W 15 20 8 11 1010.2 1010.4 4.4
25/05:00am 7.1 3.5 6.7 97 0.2 WNW 15 24 8 13 1009.7 1009.9 4.4
25/04:30am 7.2 3.6 6.8 97 0.2 WNW 15 24 8 13 1009.2 1009.4 4.4
25/04:00am 7.2 3.6 6.8 97 0.2 NW 15 22 8 12 1008.8 1009.0 4.4
25/03:30am 7.0 3.0 6.7 98 0.1 NW 17 24 9 13 1008.5 1008.7 4.4
25/03:00am 6.9 2.9 6.6 98 0.1 NW 17 24 9 13 1008.5 1008.7 4.2
25/02:30am 6.9 2.9 6.5 97 0.2 NNW 17 24 9 13 1008.4 1008.6 4.0
25/02:00am 6.8 3.5 6.5 98 0.1 N 13 17 7 9 1008.5 1008.7 4.0
25/01:30am 6.8 3.5 6.4 97 0.2 NNW 13 19 7 10 1008.5 1008.7 3.8
25/01:00am 6.9 3.2 6.3 96 0.3 NW 15 22 8 12 1008.8 1009.0 3.4
25/12:30am 6.7 3.0 6.1 96 0.3 NNW 15 22 8 12 1009.0 1009.2 3.2
25/12:00am 6.4 3.0 6.0 97 0.2 NNW 13 17 7 9 1009.1 1009.3 3.2
 
Date/Time
EST
Temp
°C
App
Temp
°C
Dew
Point
°C
Rel
Hum
%
Delta-T
°C
Wind Press
QNH
hPa
Press
MSL
hPa
Rain since
9am
mm
Dir  Spd
km/h
Gust
km/h
Spd
kts
Gust
kts
24/11:30pm 6.2 3.2 5.8 97 0.2 NNW 11 15 6 8 1009.1 1009.3 3.2
24/11:00pm 6.2 3.1 5.6 96 0.3 NNW 11 17 6 9 1009.2 1009.4 3.2
24/10:30pm 6.3 3.6 5.6 95 0.3 NNW 9 13 5 7 1009.1 1009.3 3.2
24/10:00pm 6.9 3.9 6.2 95 0.3 NW 11 17 6 9 1009.4 1009.6 3.2
24/09:30pm 6.9 4.0 6.3 96 0.3 NNW 11 17 6 9 1009.4 1009.6 3.0
24/09:00pm 7.3 3.3 6.7 96 0.3 NNW 17 20 9 11 1009.2 1009.4 2.8
24/08:30pm 6.9 3.2 6.5 97 0.2 N 15 20 8 11 1009.3 1009.5 2.4
24/08:00pm 6.7 4.1 6.3 97 0.2 NNE 9 15 5 8 1009.0 1009.2 2.0
24/07:30pm 6.5 3.9 6.2 98 0.1 NNE 9 13 5 7 1009.3 1009.5 1.8
24/07:00pm 6.5 3.9 6.1 97 0.2 NE 9 13 5 7 1009.0 1009.2 1.8
24/06:30pm 6.6 4.0 6.2 97 0.2 NNE 9 13 5 7 1009.0 1009.2 1.8
24/06:00pm 6.9 3.2 6.2 95 0.3 NNE 15 20 8 11 1008.6 1008.8 1.8
24/05:30pm 7.6 4.3 6.5 93 0.5 NE 13 17 7 9 1008.0 1008.2 1.8
24/05:00pm 7.8 5.2 6.1 89 0.8 NNW 9 17 5 9 1008.4 1008.6 1.8
24/04:30pm 8.2 4.3 7.0 92 0.6 N 17 24 9 13 1009.2 1009.4 1.4
24/04:00pm 9.1 6.6 8.2 94 0.4 N 11 15 6 8 1009.2 1009.4 1.2
24/03:30pm 9.5 6.5 7.8 89 0.8 NNE 13 17 7 9 1009.2 1009.4 0.8
24/03:00pm 9.6 6.5 7.4 86 1.1 N 13 19 7 10 1009.6 1009.8 0.8
24/02:30pm 9.5 5.7 7.6 88 0.9 N 17 26 9 14 1009.8 1010.0 0.8
24/02:00pm 8.7 5.7 7.5 92 0.6 NNE 13 20 7 11 1010.3 1010.5 0.8
24/01:30pm 8.3 5.2 7.1 92 0.6 NNE 13 19 7 10 1010.9 1011.1 0.4
24/01:00pm 8.6 5.3 6.4 86 1.0 NNE 13 20 7 11 1011.3 1011.5 0.0
24/12:30pm 7.9 3.7 5.5 85 1.1 NNE 17 22 9 12 1012.2 1012.5 0.0
24/12:00pm 7.3 3.3 5.0 85 1.0 NNE 15 20 8 11 1012.9 1013.2 0.0
24/11:30am 6.6 3.3 4.6 87 0.9 NE 11 17 6 9 1013.5 1013.8 0.0
24/11:00am 6.3 3.1 4.9 91 0.6 NE 11 17 6 9 1013.8 1014.1 0.0
24/10:30am 5.2 2.2 4.0 92 0.5 NNE 9 13 5 7 1014.1 1014.4 0.0
24/10:00am 4.3 1.2 3.4 94 0.4 NE 9 13 5 7 1014.3 1014.6 0.0
24/09:30am 3.7 0.5 2.8 94 0.4 NE 9 13 5 7 1014.2 1014.5 0.0
24/09:00am 3.3 0.0 2.6 95 0.3 NNE 9 13 5 7 1014.2 1014.5 0.0
24/08:30am 2.8 -1.3 2.4 97 0.2 NE 13 17 7 9 1013.9 1014.2 0.0
24/08:00am 2.1 -0.9 2.0 99 0.0 ENE 7 11 4 6 1014.3 1014.6 0.0
24/07:30am 0.8 -2.2 0.5 98 0.1 NE 6 7 3 4 1014.3 1014.6 0.0
24/07:00am 0.8 -2.4 0.5 98 0.1 NE 7 7 4 4 1014.0 1014.3 0.0
24/06:30am 0.8 -2.2 0.5 98 0.1 NE 6 7 3 4 1014.0 1014.3 0.0
24/06:00am 0.1 -2.7 -0.2 98 0.1 NNE 4 4 2 2 1013.9 1014.2 0.0
24/05:30am 0.6 -2.1 0.3 98 0.1 NE 4 6 2 3 1013.7 1014.0 0.0
24/05:00am -0.1 -2.2 -0.7 96 0.2 CALM 0 0 0 0 1013.6 1013.9 0.0
24/04:30am 1.6 -0.6 1.0 96 0.2 NW 2 4 1 2 1013.7 1014.0 0.0
24/04:00am 1.5 -1.5 0.6 94 0.3 NNW 6 7 3 4 1014.0 1014.3 0.0
24/03:30am 1.9 -0.7 1.0 94 0.3 NNW 4 4 2 2 1014.4 1014.7 0.0
24/03:00am 1.9 -1.1 0.9 93 0.4 NW 6 6 3 3 1014.4 1014.7 0.0
24/02:30am 2.5 -0.6 1.3 92 0.5 NW 7 7 4 4 1014.6 1014.9 0.0
24/02:00am 2.4 -0.7 1.4 93 0.4 NNW 7 9 4 5 1014.6 1014.9 0.0
24/01:30am 2.3 -0.8 1.1 92 0.5 NNW 7 9 4 5 1014.6 1014.9 0.0
24/01:00am 2.4 0.3 1.4 93 0.4 NW 2 4 1 2 1014.5 1014.8 0.0
24/12:30am 3.4 0.4 2.2 92 0.5 NNW 7 9 4 5 1014.7 1015.0 0.0
24/12:00am 3.4 0.5 1.6 88 0.7 WSW 6 6 3 3 1014.5 1014.8 0.0
 
Date/Time
EST
Temp
°C
App
Temp
°C
Dew
Point
°C
Rel
Hum
%
Delta-T
°C
Wind Press
QNH
hPa
Press
MSL
hPa
Rain since
9am
mm
Dir  Spd
km/h
Gust
km/h
Spd
kts
Gust
kts
23/11:30pm 5.2 1.9 2.2 81 1.2 W 9 13 5 7 1014.7 1015.0 0.0
23/11:00pm 6.1 2.0 2.4 77 1.5 WNW 13 19 7 10 1014.5 1014.8 0.0
23/10:30pm 5.7 2.0 2.2 78 1.4 WNW 11 13 6 7 1014.6 1014.9 0.0
23/10:00pm 4.5 1.7 2.0 84 1.0 WNW 6 7 3 4 1014.6 1014.9 0.0
23/09:30pm 4.2 1.2 1.7 84 1.0 W 7 9 4 5 1014.4 1014.7 0.0
23/09:00pm 4.3 1.5 2.3 87 0.8 WSW 6 6 3 3 1014.5 1014.8 0.0
23/08:30pm 5.6 2.2 2.1 78 1.4 W 9 13 5 7 1014.2 1014.5 0.0
23/08:00pm 7.2 3.0 1.9 69 2.2 WNW 13 20 7 11 1013.7 1014.0 0.0
23/07:30pm 7.9 3.8 2.0 66 2.5 WNW 13 19 7 10 1013.5 1013.8 0.0
23/07:00pm 8.1 2.6 2.1 66 2.5 WNW 20 30 11 16 1013.0 1013.3 0.0
23/06:30pm 8.3 3.4 2.3 66 2.5 WNW 17 26 9 14 1012.8 1013.1 0.0
23/06:00pm 8.6 4.3 3.0 68 2.4 WNW 15 24 8 13 1012.4 1012.7 0.0
23/05:30pm 8.3 4.4 3.2 70 2.2 WNW 13 20 7 11 1012.2 1012.5 0.0
23/05:00pm 9.1 4.8 3.1 66 2.6 W 15 20 8 11 1011.8 1012.0 0.0
23/04:30pm 9.8 4.1 3.1 63 2.9 W 22 28 12 15 1011.4 1011.6 0.0
23/04:00pm 10.1 4.6 3.8 65 2.8 W 22 32 12 17 1010.9 1011.1 0.0
23/03:30pm 10.3 3.7 4.0 65 2.8 W 28 37 15 20 1010.5 1010.7 0.0
23/03:00pm 10.4 3.8 4.1 65 2.8 W 28 37 15 20 1010.0 1010.2 0.0
23/02:30pm 10.1 3.8 4.0 66 2.7 WSW 26 33 14 18 1009.6 1009.8 0.0
23/02:14pm 9.4 2.1 4.4 71 2.2 WSW 32 52 17 28 1009.6 1009.8 0.0
23/02:00pm 10.6 4.1 4.5 66 2.8 W 28 39 15 21 1009.4 1009.6 0.0
23/01:30pm 10.6 5.6 4.5 66 2.8 W 20 28 11 15 1009.2 1009.4 0.0
23/01:00pm 10.5 4.2 4.0 64 2.9 W 26 35 14 19 1009.3 1009.5 0.0
23/12:30pm 10.1 3.6 4.7 69 2.4 W 28 43 15 23 1009.4 1009.6 0.0
23/12:00pm 9.1 0.9 4.9 75 1.9 W 37 48 20 26 1009.3 1009.5 0.0
23/11:30am 10.2 2.3 4.1 66 2.7 WSW 35 48 19 26 1008.9 1009.1 0.0
23/11:03am 9.6 2.0 4.0 68 2.5 WSW 33 52 18 28 1008.6 1008.8 0.0
23/11:00am 9.5 2.3 4.9 73 2.1 W 32 41 17 22 1008.5 1008.7 0.0
23/10:30am 7.8 -0.3 3.5 74 1.8 WSW 35 61 19 33 1008.2 1008.4 0.0
23/10:00am 8.5 0.8 5.3 80 1.4 WSW 35 56 19 30 1007.5 1007.7 0.0
23/09:59am 8.5 0.8 5.3 80 1.4 WSW 35 56 19 30 1007.5 1007.7 0.0
23/09:30am 8.6 1.6 6.1 84 1.2 W 32 43 17 23 1006.5 1006.8 0.0
23/09:00am 8.4 3.0 6.2 86 1.0 W 24 37 13 20 1006.0 1006.3 12.0
23/08:30am 7.8 3.1 5.9 88 0.9 W 20 28 11 15 1005.2 1005.4 12.0
23/08:00am 7.4 2.7 5.9 90 0.7 W 20 26 11 14 1004.6 1004.8 12.0
23/07:30am 7.5 2.4 5.8 89 0.8 W 22 30 12 16 1004.3 1004.5 12.0
23/07:00am 8.3 1.7 5.9 85 1.1 W 30 43 16 23 1003.8 1004.0 12.0
23/06:30am 8.4 2.9 5.9 84 1.1 W 24 35 13 19 1003.1 1003.3 12.0
23/06:00am 8.6 1.5 5.5 81 1.4 W 32 46 17 25 1002.5 1002.7 12.0
23/05:30am 8.8 2.4 5.4 79 1.5 WNW 28 43 15 23 1001.7 1001.9 12.0
23/05:05am 8.9 1.8 5.3 78 1.6 WNW 32 54 17 29 1001.3 1001.5 12.0
23/05:00am 8.8 1.4 5.2 78 1.6 WNW 33 48 18 26 1001.1 1001.3 12.0
23/04:30am 9.0 2.2 5.2 77 1.7 WNW 30 48 16 26 1000.6 1000.8 11.8
23/04:29am 8.9 2.5 5.1 77 1.7 WNW 28 46 15 25 1000.6 1000.8 11.8
23/04:00am 9.1 2.3 5.3 77 1.7 W 30 43 16 23 1000.7 1000.9 11.8
23/03:30am 9.3 1.9 4.9 74 2.0 WNW 33 57 18 31 1000.3 1000.5 11.8
23/03:00am 9.7 2.0 5.3 74 2.0 WNW 35 57 19 31 1000.1 1000.3 11.6
23/02:30am 10.0 1.6 5.6 74 2.0 WNW 39 57 21 31 999.7 999.9 11.6
23/02:01am 10.1 2.9 5.9 75 1.9 WNW 33 54 18 29 999.3 999.5 11.4
23/02:00am 10.1 2.9 5.9 75 2.0 WNW 33 46 18 25 999.3 999.5 11.4
23/01:30am 10.6 3.7 6.4 75 2.0 WNW 32 59 17 32 999.2 999.3 11.2
23/01:14am 10.7 4.3 7.0 78 1.8 WNW 30 52 16 28 999.2 999.3 11.2
23/01:00am 10.7 5.3 7.8 82 1.4 WNW 26 35 14 19 999.1 999.2 11.0
23/12:30am 10.6 6.0 8.2 85 1.2 NW 22 35 12 19 999.1 999.2 10.8
23/12:00am 10.7 5.8 8.5 86 1.1 WNW 24 35 13 19 999.0 999.1 10.8
 
Date/Time
EST
Temp
°C
App
Temp
°C
Dew
Point
°C
Rel
Hum
%
Delta-T
°C
Wind Press
QNH
hPa
Press
MSL
hPa
Rain since
9am
mm
Dir  Spd
km/h
Gust
km/h
Spd
kts
Gust
kts
22/11:30pm 10.6 6.1 8.7 88 0.9 WNW 22 35 12 19 998.6 998.8 10.6
22/11:00pm 10.6 5.8 8.9 89 0.9 NW 24 37 13 20 998.8 998.9 10.4
22/10:30pm 10.7 6.9 9.1 90 0.8 NW 19 28 10 15 999.0 999.1 10.0
22/10:00pm 10.9 7.6 9.7 92 0.6 WNW 17 26 9 14 999.1 999.2 9.8
22/09:30pm 11.0 7.3 9.6 91 0.7 WNW 19 28 10 15 999.5 999.7 9.6
22/09:00pm 11.9 6.8 9.1 83 1.4 WNW 26 39 14 21 999.1 999.2 9.4
22/08:30pm 11.9 8.0 8.7 81 1.6 NW 19 28 10 15 998.8 998.9 9.2
22/08:00pm 11.9 8.4 8.9 82 1.5 NW 17 28 9 15 998.8 998.9 8.8
22/07:30pm 10.3 8.1 9.2 93 0.5 NNW 11 17 6 9 998.8 998.9 8.6
22/07:00pm 10.4 8.5 9.0 91 0.7 NW 9 13 5 7 999.1 999.2 8.4
22/06:30pm 9.8 8.2 8.6 92 0.6 NNW 7 11 4 6 998.8 998.9 8.0
22/06:00pm 10.5 8.9 8.9 90 0.8 NW 7 9 4 5 999.1 999.2 7.8
22/05:30pm 12.0 10.1 9.0 82 1.5 NW 9 15 5 8 998.9 999.0 7.6
22/05:00pm 12.9 10.3 9.4 79 1.8 WNW 13 20 7 11 998.8 998.9 7.2
22/04:30pm 13.0 9.6 9.3 78 1.9 WNW 17 24 9 13 998.8 998.9 6.8
22/04:00pm 12.9 9.6 9.7 81 1.7 W 17 26 9 14 999.0 999.1 6.4
22/03:30pm 13.0 9.9 10.2 83 1.5 W 17 22 9 12 999.3 999.5 6.0
22/03:00pm 13.3 9.6 11.4 88 1.0 WNW 22 33 12 18 999.2 999.3 5.6
22/02:30pm 12.9 9.4 12.3 96 0.3 WNW 22 33 12 18 999.2 999.3 5.2
22/02:00pm 12.8 9.0 12.3 97 0.3 WNW 24 35 13 19 999.2 999.3 4.8
22/01:30pm 12.9 9.2 12.6 98 0.2 W 24 35 13 19 1000.4 1000.6 4.4
22/01:00pm 13.5 8.3 12.7 95 0.4 WSW 32 54 17 29 1000.2 1000.4 4.0
22/12:57pm 13.8 9.4 12.9 94 0.5 WSW 28 54 15 29 1000.2 1000.4 3.8
22/12:30pm 15.3 13.1 14.8 97 0.3 W 20 26 11 14 1000.6 1000.8 3.4

Other Formats:

Comma delimited format used in spreadsheet applications
http://www.bom.gov.au/fwo/IDN60801/IDN60801.94862.axf

JavaScript Object Notation format (JSON) in row-major order
http://www.bom.gov.au/fwo/IDN60801/IDN60801.94862.json